createdAt,value
2019-02-02T00:00:54.586Z,53.17
2019-02-02T00:03:26.061Z,57.70
2019-02-02T00:05:59.091Z,55.00
2019-02-02T00:08:32.694Z,54.10
2019-02-02T00:11:04.241Z,53.47
2019-02-02T00:13:39.146Z,48.43
2019-02-02T00:16:11.556Z,49.60
2019-02-02T00:18:43.009Z,58.60
2019-02-02T00:21:14.468Z,62.00
2019-02-02T00:23:47.658Z,60.30
2019-02-02T00:26:19.090Z,50.77
2019-02-02T00:28:50.551Z,53.80
2019-02-02T00:31:29.384Z,58.43
2019-02-02T00:33:57.612Z,53.97
2019-02-02T00:36:29.028Z,51.73
2019-02-02T00:39:01.805Z,53.03
2019-02-02T00:41:36.125Z,55.23
2019-02-02T00:44:07.720Z,47.83
2019-02-02T00:46:39.149Z,51.53
2019-02-02T00:49:10.990Z,56.93
2019-02-02T00:51:42.422Z,64.90
2019-02-02T00:54:13.891Z,51.70
2019-02-02T00:56:45.312Z,49.23
2019-02-02T00:59:16.792Z,51.20
2019-02-02T01:01:48.194Z,56.13
2019-02-02T01:04:19.628Z,47.57
2019-02-02T01:06:51.072Z,46.13
2019-02-02T01:09:25.808Z,45.07
2019-02-02T01:11:57.326Z,44.23
2019-02-02T01:14:28.778Z,47.63
2019-02-02T01:17:00.310Z,51.27
2019-02-02T01:19:31.855Z,47.60
2019-02-02T01:22:04.936Z,45.13
2019-02-02T01:24:36.402Z,45.03
2019-02-02T01:27:07.840Z,46.90
2019-02-02T01:29:39.335Z,42.53
2019-02-02T01:32:13.794Z,44.53
2019-02-02T01:34:43.955Z,56.13
2019-02-02T01:37:15.399Z,50.93
2019-02-02T01:39:46.880Z,50.63
2019-02-02T01:42:18.313Z,55.37
2019-02-02T01:44:49.771Z,52.33
2019-02-02T01:47:21.192Z,49.67
2019-02-02T01:49:52.630Z,56.07
2019-02-02T01:52:24.050Z,52.70
2019-02-02T01:54:57.114Z,55.70
2019-02-02T01:57:28.534Z,51.67
2019-02-02T01:59:59.999Z,52.27
2019-02-02T02:02:31.423Z,52.23
2019-02-02T02:05:02.862Z,51.40
2019-02-02T02:07:34.280Z,47.53
2019-02-02T02:10:06.897Z,47.70
2019-02-02T02:12:38.346Z,57.93
2019-02-02T02:15:13.199Z,51.87
2019-02-02T02:17:45.126Z,51.20
2019-02-02T02:20:17.731Z,50.83
2019-02-02T02:22:49.707Z,50.43
2019-02-02T02:25:21.723Z,56.60
2019-02-02T02:27:54.299Z,51.90
2019-02-02T02:30:25.787Z,50.07
2019-02-02T02:32:57.149Z,47.20
2019-02-02T02:35:28.592Z,50.73
2019-02-02T02:38:00.062Z,47.17
2019-02-02T02:40:31.509Z,48.17
2019-02-02T02:43:02.942Z,52.13
2019-02-02T02:45:35.593Z,46.60
2019-02-02T02:48:07.281Z,47.10
2019-02-02T02:50:38.756Z,47.33
2019-02-02T02:53:10.219Z,51.47
2019-02-02T02:55:43.205Z,42.20
2019-02-02T02:58:14.636Z,47.13
2019-02-02T03:00:46.078Z,43.33
2019-02-02T03:03:17.499Z,48.30
2019-02-02T03:05:49.133Z,40.57
2019-02-02T03:08:20.558Z,42.50
2019-02-02T03:10:52.012Z,48.30
2019-02-02T03:13:23.431Z,40.43
2019-02-02T03:15:54.849Z,44.63
2019-02-02T03:18:26.315Z,46.27
2019-02-02T03:20:57.754Z,43.73
2019-02-02T03:23:29.175Z,51.73
2019-02-02T03:26:00.623Z,41.63
2019-02-02T03:28:32.015Z,48.27
2019-02-02T03:31:03.493Z,46.67
2019-02-02T03:33:34.937Z,46.73
2019-02-02T03:36:06.381Z,50.53
2019-02-02T03:38:37.794Z,48.57
2019-02-02T03:41:09.277Z,46.93
2019-02-02T03:43:40.778Z,44.40
2019-02-02T03:46:12.238Z,47.23
2019-02-02T03:48:43.765Z,48.13
2019-02-02T03:51:16.888Z,48.67
2019-02-02T03:53:48.333Z,46.93
2019-02-02T03:56:19.761Z,54.50
2019-02-02T03:58:51.207Z,59.10
2019-02-02T04:01:22.689Z,63.90
2019-02-02T04:03:54.305Z,50.60
2019-02-02T04:06:25.766Z,48.83
2019-02-02T04:08:57.191Z,50.43
2019-02-02T04:11:28.637Z,53.10
2019-02-02T04:14:00.157Z,47.57
2019-02-02T04:16:31.593Z,50.63
2019-02-02T04:19:03.444Z,44.20
2019-02-02T04:21:34.899Z,43.43
2019-02-02T04:24:06.473Z,53.00
2019-02-02T04:26:38.009Z,51.10
2019-02-02T04:29:17.617Z,52.57
2019-02-02T04:31:42.561Z,54.90
2019-02-02T04:34:13.998Z,52.00
2019-02-02T04:36:46.047Z,48.03
2019-02-02T04:39:17.463Z,43.60
2019-02-02T04:41:48.951Z,46.60
2019-02-02T04:44:20.380Z,49.33
2019-02-02T04:46:51.849Z,48.10
2019-02-02T04:49:23.451Z,40.07
2019-02-02T04:51:54.971Z,44.17
2019-02-02T04:54:26.387Z,56.03
2019-02-02T04:56:57.866Z,45.27
2019-02-02T04:59:29.731Z,48.10
2019-02-02T05:02:01.305Z,50.23
2019-02-02T05:04:34.565Z,50.37
2019-02-02T05:07:07.101Z,62.27
2019-02-02T05:09:38.516Z,48.63
2019-02-02T05:12:09.901Z,50.60
2019-02-02T05:14:41.383Z,51.87
2019-02-02T05:17:12.944Z,49.33
2019-02-02T05:19:44.396Z,50.20
2019-02-02T05:22:15.876Z,47.20
2019-02-02T05:24:47.297Z,52.67
2019-02-02T05:27:18.746Z,55.37
2019-02-02T05:29:50.087Z,52.37
2019-02-02T05:32:21.542Z,46.27
2019-02-02T05:34:52.895Z,45.53
2019-02-02T05:37:24.350Z,49.77
2019-02-02T05:39:55.736Z,44.70
2019-02-02T05:42:27.175Z,51.73
2019-02-02T05:44:58.611Z,50.60
2019-02-02T05:47:30.060Z,48.60
2019-02-02T05:50:03.804Z,53.23
2019-02-02T05:52:35.267Z,54.47
2019-02-02T05:55:09.075Z,50.83
2019-02-02T05:57:40.523Z,52.57
2019-02-02T06:00:28.446Z,50.83
2019-02-02T06:02:59.923Z,48.33
2019-02-02T06:05:32.438Z,47.33
2019-02-02T06:08:03.884Z,52.27
2019-02-02T06:10:35.302Z,55.27
2019-02-02T06:13:06.872Z,45.63
2019-02-02T06:15:38.806Z,48.30
2019-02-02T06:18:10.270Z,57.00
2019-02-02T06:20:41.713Z,52.27
2019-02-02T06:23:14.297Z,47.50
2019-02-02T06:25:45.992Z,45.33
2019-02-02T06:28:17.486Z,51.77
2019-02-02T06:30:48.914Z,49.03
2019-02-02T06:33:20.374Z,45.57
2019-02-02T06:35:51.823Z,51.23
2019-02-02T06:38:23.302Z,48.73
2019-02-02T06:40:54.801Z,59.10
2019-02-02T06:43:26.328Z,48.63
2019-02-02T06:45:57.799Z,49.57
2019-02-02T06:48:29.230Z,48.00
2019-02-02T06:51:00.650Z,46.80
2019-02-02T06:53:32.103Z,55.37
2019-02-02T06:56:03.552Z,44.80
2019-02-02T06:58:35.012Z,48.00
2019-02-02T07:01:06.440Z,48.40
2019-02-02T07:03:37.940Z,39.03
2019-02-02T07:06:09.306Z,54.40
2019-02-02T07:08:40.746Z,54.07
2019-02-02T07:11:18.824Z,51.60
2019-02-02T07:13:50.140Z,52.13
2019-02-02T07:16:21.560Z,48.77
2019-02-02T07:18:54.253Z,47.60
2019-02-02T07:21:25.774Z,48.33
2019-02-02T07:23:57.279Z,48.37
2019-02-02T07:26:28.756Z,50.37
2019-02-02T07:29:00.201Z,51.27
2019-02-02T07:31:31.641Z,45.47
2019-02-02T07:34:03.178Z,45.07
2019-02-02T07:36:34.620Z,53.97
2019-02-02T07:39:08.323Z,46.60
2019-02-02T07:41:41.237Z,47.13
2019-02-02T07:44:12.808Z,47.73
2019-02-02T07:46:44.300Z,44.20
2019-02-02T07:49:15.742Z,43.37
2019-02-02T07:51:47.174Z,50.57
2019-02-02T07:54:18.639Z,43.47
2019-02-02T07:56:50.160Z,39.40
2019-02-02T07:59:21.651Z,52.90
2019-02-02T08:01:54.901Z,51.13
2019-02-02T08:04:28.493Z,58.57
2019-02-02T08:06:59.929Z,52.53
2019-02-02T08:09:31.381Z,37.70
2019-02-02T08:12:07.539Z,48.60
2019-02-02T08:14:40.087Z,50.10
2019-02-02T08:17:11.529Z,41.60
2019-02-02T08:19:43.043Z,36.83
2019-02-02T08:22:14.457Z,41.40
2019-02-02T08:24:45.944Z,51.50
2019-02-02T08:27:20.594Z,42.67
2019-02-02T08:29:52.063Z,38.83
2019-02-02T08:32:23.519Z,42.83
2019-02-02T08:34:54.972Z,42.53
2019-02-02T08:37:26.443Z,40.60
2019-02-02T08:39:57.925Z,53.03
2019-02-02T08:42:29.386Z,39.90
2019-02-02T08:45:02.512Z,46.73
2019-02-02T08:47:33.942Z,51.50
2019-02-02T08:50:08.381Z,43.63
2019-02-02T08:52:39.804Z,40.23
2019-02-02T08:55:11.276Z,37.57
2019-02-02T08:57:42.742Z,41.27
2019-02-02T09:00:17.618Z,46.57
2019-02-02T09:02:50.628Z,59.40
2019-02-02T09:05:22.729Z,41.50
2019-02-02T09:07:54.159Z,50.53
2019-02-02T09:10:27.812Z,50.13
2019-02-02T09:12:59.733Z,40.53
2019-02-02T09:15:31.310Z,45.23
2019-02-02T09:18:02.793Z,43.90
2019-02-02T09:20:34.252Z,42.53
2019-02-02T09:23:07.351Z,57.03
2019-02-02T09:25:38.752Z,77.83
2019-02-02T09:28:10.236Z,107.47
2019-02-02T09:30:41.733Z,37.40
2019-02-02T09:33:13.186Z,51.17
2019-02-02T09:35:44.688Z,44.37
2019-02-02T09:38:19.258Z,38.50
2019-02-02T09:40:50.771Z,39.60
2019-02-02T09:43:22.203Z,37.80
2019-02-02T09:45:53.662Z,38.60
2019-02-02T09:48:25.133Z,36.07
2019-02-02T09:50:56.536Z,33.33
2019-02-02T09:53:28.047Z,29.70
2019-02-02T09:55:59.518Z,32.53
2019-02-02T09:58:31.452Z,26.00
2019-02-02T10:01:02.937Z,24.13
2019-02-02T10:03:34.405Z,26.17
2019-02-02T10:06:06.095Z,29.77
2019-02-02T10:08:37.553Z,30.13
2019-02-02T10:11:09.094Z,31.13
2019-02-02T10:13:40.593Z,28.40
2019-02-02T10:16:12.046Z,25.50
2019-02-02T10:18:43.471Z,24.47
2019-02-02T10:21:14.993Z,25.27
2019-02-02T10:23:46.431Z,44.73
2019-02-02T10:26:18.003Z,34.90
2019-02-02T10:28:49.552Z,22.53
2019-02-02T10:31:21.005Z,20.77
2019-02-02T10:33:52.520Z,21.90
2019-02-02T10:36:23.898Z,22.17
2019-02-02T10:38:55.358Z,21.17
2019-02-02T10:41:26.859Z,20.93
2019-02-02T10:43:58.306Z,23.17
2019-02-02T10:46:29.751Z,21.50
2019-02-02T10:49:01.243Z,15.17
2019-02-02T10:51:32.712Z,14.50
2019-02-02T10:54:05.588Z,17.27
2019-02-02T10:56:37.309Z,13.27
2019-02-02T10:59:08.744Z,9.43
2019-02-02T11:01:50.442Z,19.43
2019-02-02T11:04:13.357Z,21.57
2019-02-02T11:06:44.860Z,19.37
2019-02-02T11:09:16.403Z,14.67
2019-02-02T11:11:47.923Z,9.30
2019-02-02T11:14:19.233Z,9.77
2019-02-02T11:16:50.786Z,9.97
2019-02-02T11:19:22.294Z,11.00
2019-02-02T11:21:53.776Z,10.20
2019-02-02T11:24:25.870Z,7.93
2019-02-02T11:26:57.505Z,11.00
2019-02-02T11:29:29.004Z,13.53
2019-02-02T11:32:02.868Z,13.50
2019-02-02T11:34:33.701Z,9.07
2019-02-02T11:37:05.315Z,10.10
2019-02-02T11:39:36.810Z,6.77
2019-02-02T11:42:08.294Z,7.50
2019-02-02T11:44:39.717Z,16.20
2019-02-02T11:47:11.317Z,9.50
2019-02-02T11:49:49.881Z,8.23
2019-02-02T11:52:23.370Z,37.67
2019-02-02T11:54:54.659Z,9.57
2019-02-02T11:57:26.150Z,11.33
2019-02-02T11:59:57.666Z,13.30
2019-02-02T12:02:29.196Z,10.73
2019-02-02T12:05:00.675Z,9.30
2019-02-02T12:07:32.117Z,15.43
2019-02-02T12:10:03.823Z,9.93
2019-02-02T12:12:37.904Z,9.67
2019-02-02T12:15:11.755Z,10.97
2019-02-02T12:17:43.210Z,12.43
2019-02-02T12:20:16.928Z,8.93
2019-02-02T12:22:49.074Z,12.23
2019-02-02T12:25:20.503Z,11.83
2019-02-02T12:27:51.982Z,10.83
2019-02-02T12:30:35.101Z,8.60
2019-02-02T12:33:07.419Z,7.43
2019-02-02T12:35:40.708Z,7.77
2019-02-02T12:38:12.307Z,8.07
2019-02-02T12:40:43.747Z,6.50
2019-02-02T12:43:15.270Z,8.50
2019-02-02T12:45:53.921Z,7.13
2019-02-02T12:48:25.365Z,7.37
2019-02-02T12:51:00.006Z,57.17
2019-02-02T12:53:31.464Z,10.63
2019-02-02T12:56:02.981Z,9.07
2019-02-02T12:58:34.422Z,6.43
2019-02-02T13:01:05.858Z,8.43
2019-02-02T13:03:37.310Z,7.33
2019-02-02T13:06:08.736Z,5.93
2019-02-02T13:08:40.111Z,6.03
2019-02-02T13:11:11.558Z,6.03
2019-02-02T13:13:43.040Z,5.10
2019-02-02T13:16:14.452Z,9.13
2019-02-02T13:18:45.924Z,4.93
2019-02-02T13:21:17.509Z,5.03
2019-02-02T13:23:48.962Z,6.93
2019-02-02T13:26:20.382Z,7.70
2019-02-02T13:28:51.784Z,6.63
2019-02-02T13:31:23.216Z,5.37
2019-02-02T13:33:54.661Z,6.20
2019-02-02T13:36:29.751Z,6.77
2019-02-02T13:38:59.298Z,8.20
2019-02-02T13:41:33.708Z,4.93
2019-02-02T13:44:05.275Z,5.67
2019-02-02T13:46:36.702Z,5.43
2019-02-02T13:49:08.174Z,4.47
2019-02-02T13:51:39.661Z,5.33
2019-02-02T13:54:11.191Z,5.57
2019-02-02T13:56:42.628Z,4.70
2019-02-02T13:59:14.105Z,4.43
2019-02-02T14:01:46.485Z,4.43
2019-02-02T14:04:17.963Z,5.17
2019-02-02T14:06:49.384Z,5.83
2019-02-02T14:09:20.862Z,7.23
2019-02-02T14:11:52.284Z,5.97
2019-02-02T14:14:23.757Z,4.67
2019-02-02T14:16:55.194Z,3.77
2019-02-02T14:19:26.682Z,5.37
2019-02-02T14:21:58.221Z,6.10
2019-02-02T14:24:29.790Z,4.10
2019-02-02T14:27:01.269Z,5.10
2019-02-02T14:29:32.768Z,4.27
2019-02-02T14:32:04.182Z,4.47
2019-02-02T14:34:40.197Z,4.03
2019-02-02T14:37:08.736Z,2.97
2019-02-02T14:39:40.226Z,3.13
2019-02-02T14:42:11.664Z,4.10
2019-02-02T14:44:43.137Z,4.20
2019-02-02T14:47:15.037Z,4.10
2019-02-02T14:49:49.581Z,5.67
2019-02-02T14:52:20.992Z,6.10
2019-02-02T14:54:52.442Z,7.43
2019-02-02T14:57:23.903Z,5.30
2019-02-02T14:59:56.410Z,5.33
2019-02-02T15:02:27.844Z,9.07
2019-02-02T15:04:59.289Z,7.63
2019-02-02T15:07:30.756Z,5.57
2019-02-02T15:10:02.323Z,5.40
2019-02-02T15:12:37.006Z,8.53
2019-02-02T15:15:10.124Z,10.47
2019-02-02T15:17:44.577Z,21.93
2019-02-02T15:20:25.898Z,18.63
2019-02-02T15:22:57.324Z,14.80
2019-02-02T15:25:28.926Z,12.83
2019-02-02T15:28:00.401Z,10.17
2019-02-02T15:30:32.416Z,9.30
2019-02-02T15:33:03.864Z,12.90
2019-02-02T15:35:35.511Z,13.37
2019-02-02T15:38:07.505Z,17.20
2019-02-02T15:40:39.027Z,26.20
2019-02-02T15:43:10.796Z,96.27
2019-02-02T15:45:42.393Z,59.00
2019-02-02T15:48:13.832Z,25.33
2019-02-02T15:50:46.969Z,23.60
2019-02-02T15:53:18.625Z,25.33
2019-02-02T15:55:50.497Z,35.47
2019-02-02T15:58:22.148Z,29.63
2019-02-02T16:00:53.623Z,26.83
2019-02-02T16:03:25.084Z,21.63
2019-02-02T16:05:56.649Z,21.13
2019-02-02T16:08:28.084Z,19.83
2019-02-02T16:10:59.562Z,19.70
2019-02-02T16:13:31.023Z,21.87
2019-02-02T16:16:02.524Z,23.60
2019-02-02T16:18:33.897Z,34.93
2019-02-02T16:21:05.362Z,18.50
2019-02-02T16:23:36.835Z,21.77
2019-02-02T16:26:08.337Z,20.10
2019-02-02T16:28:39.820Z,16.73
2019-02-02T16:31:11.303Z,17.60
2019-02-02T16:33:42.747Z,11.50
2019-02-02T16:36:14.208Z,11.80
2019-02-02T16:38:45.719Z,10.47
2019-02-02T16:41:17.183Z,12.50
2019-02-02T16:43:48.551Z,18.17
2019-02-02T16:46:20.014Z,12.10
2019-02-02T16:48:53.635Z,16.60
2019-02-02T16:51:24.721Z,16.53
2019-02-02T16:53:56.827Z,16.73
2019-02-02T16:56:29.399Z,18.20
2019-02-02T16:59:00.983Z,25.30
2019-02-02T17:01:32.468Z,33.70
2019-02-02T17:04:15.070Z,31.10
2019-02-02T17:06:37.590Z,34.57
2019-02-02T17:09:10.699Z,42.87
2019-02-02T17:11:42.263Z,32.40
2019-02-02T17:14:13.644Z,49.73
2019-02-02T17:16:45.239Z,34.47
2019-02-02T17:19:16.782Z,44.30
2019-02-02T17:21:48.729Z,42.60
2019-02-02T17:24:20.199Z,36.33
2019-02-02T17:26:51.691Z,36.13
2019-02-02T17:29:23.158Z,34.80
2019-02-02T17:31:54.661Z,37.30
2019-02-02T17:34:27.528Z,33.33
2019-02-02T17:36:59.194Z,36.67
2019-02-02T17:39:30.634Z,47.10
2019-02-02T17:42:03.940Z,35.37
2019-02-02T17:44:35.311Z,41.30
2019-02-02T17:47:06.809Z,36.27
2019-02-02T17:49:38.284Z,42.50
2019-02-02T17:52:09.762Z,36.87
2019-02-02T17:54:41.187Z,38.57
2019-02-02T17:57:12.716Z,35.53
2019-02-02T17:59:44.157Z,40.97
2019-02-02T18:02:15.605Z,43.57
2019-02-02T18:04:47.060Z,38.43
2019-02-02T18:07:18.518Z,37.30
2019-02-02T18:09:49.870Z,32.80
2019-02-02T18:12:21.366Z,39.83
2019-02-02T18:14:52.826Z,45.20
2019-02-02T18:17:24.307Z,42.80
2019-02-02T18:19:55.712Z,43.47
2019-02-02T18:22:27.186Z,42.00
2019-02-02T18:24:58.542Z,50.50
2019-02-02T18:27:30.008Z,48.40
2019-02-02T18:30:01.362Z,57.37
2019-02-02T18:32:34.069Z,51.17
2019-02-02T18:35:06.735Z,67.50
2019-02-02T18:37:38.207Z,53.57
2019-02-02T18:40:11.748Z,44.77
2019-02-02T18:42:43.243Z,42.63
2019-02-02T18:45:21.130Z,43.80
2019-02-02T18:47:53.219Z,40.73
2019-02-02T18:50:24.815Z,48.67
2019-02-02T18:52:56.842Z,47.03
2019-02-02T18:55:54.381Z,49.70
2019-02-02T18:58:30.544Z,44.47
2019-02-02T19:01:02.081Z,56.50
2019-02-02T19:03:33.634Z,54.07
2019-02-02T19:06:05.119Z,49.87
2019-02-02T19:08:36.544Z,56.57
2019-02-02T19:11:07.978Z,47.50
2019-02-02T19:13:39.601Z,51.03
2019-02-02T19:16:11.026Z,51.53
2019-02-02T19:18:42.487Z,51.37
2019-02-02T19:21:17.152Z,54.60
2019-02-02T19:23:48.628Z,49.77
2019-02-02T19:26:20.144Z,49.13
2019-02-02T19:28:51.889Z,52.70
2019-02-02T19:31:26.087Z,47.70
2019-02-02T19:33:59.178Z,43.97
2019-02-02T19:36:30.602Z,56.03
2019-02-02T19:39:02.052Z,62.27
2019-02-02T19:41:37.962Z,60.53
2019-02-02T19:44:09.412Z,59.30
2019-02-02T19:46:40.846Z,57.43
2019-02-02T19:49:12.315Z,56.00
2019-02-02T19:51:43.780Z,58.17
2019-02-02T19:54:17.011Z,55.20
2019-02-02T19:56:48.441Z,51.70
2019-02-02T19:59:20.435Z,50.63
2019-02-02T20:01:52.983Z,50.37
2019-02-02T20:04:25.030Z,63.70
2019-02-02T20:06:56.453Z,79.17
2019-02-02T20:09:30.765Z,70.20
2019-02-02T20:12:02.469Z,72.37
2019-02-02T20:14:35.290Z,75.57
2019-02-02T20:17:06.744Z,74.30
2019-02-02T20:19:38.294Z,66.43
2019-02-02T20:22:09.736Z,74.27
2019-02-02T20:24:41.221Z,80.20
2019-02-02T20:27:13.682Z,68.17
2019-02-02T20:29:46.731Z,69.60
2019-02-02T20:32:18.275Z,71.30
2019-02-02T20:34:52.078Z,87.20
2019-02-02T20:37:23.521Z,76.10
2019-02-02T20:39:55.006Z,83.70
2019-02-02T20:42:26.488Z,72.13
2019-02-02T20:44:58.284Z,76.33
2019-02-02T20:47:30.311Z,81.60
2019-02-02T20:50:04.710Z,92.00
2019-02-02T20:52:46.921Z,81.67
2019-02-02T20:55:20.494Z,88.77
2019-02-02T20:57:54.173Z,80.70
2019-02-02T21:00:27.361Z,97.03
2019-02-02T21:03:00.411Z,81.73
2019-02-02T21:05:32.321Z,73.47
2019-02-02T21:08:07.123Z,89.80
2019-02-02T21:10:38.589Z,103.20
2019-02-02T21:13:10.034Z,112.33
2019-02-02T21:15:41.494Z,97.13
2019-02-02T21:18:12.965Z,85.50
2019-02-02T21:20:44.426Z,98.40
2019-02-02T21:23:16.870Z,93.80
2019-02-02T21:25:48.348Z,95.00
2019-02-02T21:28:19.878Z,87.40
2019-02-02T21:30:51.777Z,91.53
2019-02-02T21:33:23.224Z,87.30
2019-02-02T21:36:03.518Z,82.97
2019-02-02T21:38:27.881Z,88.10
2019-02-02T21:40:59.342Z,89.47
2019-02-02T21:43:30.825Z,80.10
2019-02-02T21:46:02.262Z,84.27
2019-02-02T21:48:36.193Z,76.77
2019-02-02T21:51:06.940Z,100.67
2019-02-02T21:53:38.777Z,80.87
2019-02-02T21:56:10.430Z,87.60
2019-02-02T21:58:44.951Z,126.00
2019-02-02T22:01:23.752Z,100.03
2019-02-02T22:03:49.543Z,87.67
2019-02-02T22:06:22.920Z,124.53
2019-02-02T22:08:54.422Z,117.60
2019-02-02T22:11:25.860Z,122.07
2019-02-02T22:13:57.311Z,92.20
2019-02-02T22:16:30.406Z,96.53
2019-02-02T22:19:01.854Z,112.47
2019-02-02T22:21:33.329Z,100.43
2019-02-02T22:24:04.756Z,112.73
2019-02-02T22:26:36.652Z,123.37
2019-02-02T22:29:08.142Z,99.57
2019-02-02T22:31:39.594Z,108.57
2019-02-02T22:34:11.047Z,129.90
2019-02-02T22:36:44.578Z,112.97
2019-02-02T22:39:15.992Z,117.43
2019-02-02T22:41:47.519Z,112.60
2019-02-02T22:44:18.944Z,106.90
2019-02-02T22:46:50.412Z,124.77
2019-02-02T22:49:22.337Z,119.47
2019-02-02T22:51:53.838Z,107.13
2019-02-02T22:54:25.387Z,113.17
2019-02-02T22:56:56.993Z,110.63
2019-02-02T22:59:28.415Z,121.47
2019-02-02T23:02:08.253Z,92.90
2019-02-02T23:05:18.218Z,112.97
2019-02-02T23:08:15.225Z,151.87
2019-02-02T23:11:21.547Z,179.10
2019-02-02T23:14:53.544Z,142.80
2019-02-02T23:17:24.983Z,169.37
2019-02-02T23:19:56.503Z,145.00
2019-02-02T23:22:27.956Z,121.03
2019-02-02T23:24:59.578Z,180.73
2019-02-02T23:27:30.999Z,123.03
2019-02-02T23:30:08.750Z,147.57
2019-02-02T23:32:40.351Z,187.27
2019-02-02T23:35:12.213Z,158.57
2019-02-02T23:37:43.859Z,173.97
2019-02-02T23:40:15.630Z,170.23
2019-02-02T23:42:47.337Z,154.87
2019-02-02T23:45:18.779Z,199.50
2019-02-02T23:47:51.640Z,292.57
2019-02-02T23:50:23.081Z,179.10
2019-02-02T23:52:54.527Z,125.13
2019-02-02T23:55:26.050Z,169.67
2019-02-02T23:57:57.510Z,129.33
